Detall de PIREP

Printer-friendly versionPDF version

[2010/07/03 17:03:00]
Flight IATA:CT0001
Pilot Number:042
Company ICAO:CAT
Aircraft Type:F50/A
PAX:48
Aircraft Registration:PAOB
Departing Airport: LEVC
Destination Airport: LEMH
Alternate Airport:LEPA
Online: VATSIM
Route:RIKOS A33 MJV
Flight Level:FL180
No Slew and time accel
No pause
Crash detect
Detect pilot in Cockpit between each 30 and 45 minutes
17:03 Zero fuel Weight: 35102 Lbs, Fuel Weight: 9089 Lbs
17:03 VATSIM:LEVC 031630Z 11007KT CAVOK 28/18 Q1017 NOSIG
17:03 VATSIM:LEMH 031630Z VRB01KT 9999 FEW025 29/18 Q1018
17:04 VOICE CATALONIAN
17:13 Parking Brakes off
17:20 Take-off
17:20 Take off Weight: 44072 Lbs
17:20 Wind: 133 @ 009 Knots Heading: 117
17:20 POS N39 29 21 W000 28 54
17:20 Gear Up: 109 Knots
17:20 Flaps:2 at 109 Knots
17:21 Flaps:1 at 95 Knots
17:23 Flaps:0 at 120 Knots
17:31 TOC
17:31 Fuel Weight: 8463 Lb
17:35 Wind:227@019 Kn
ots Heading: 093 Ground Speed: 274 Knots Altitude 18415 ft
17:50 Wind:252@012 Knots Heading: 092 Ground Speed: 270 Knots Altitude 18425 ft
17:56 TOD
17:56 Fuel Weight: 7719 Lb
18:05 Wind:035@004 Knots Heading: 047 Ground Speed: 207 Knots Altitude 6299 ft
18:17 Flaps:1 at 237 Knots
18:19 Flaps:2 at 153 Knots
18:20 Wind:030@002 Knots Heading: 054 Ground Speed: 146 Knots Altitude 2788 ft
18:21 Gear Down: 127 Knots
18:21 Flaps:3 at 127 Knots
18:26 Flaps:4 at 112 Knots
18:26 TouchDown:Rate -166 ft/min Speed: 99 Knots
18:27 VATSIM:LEMH 031800Z VRB01KT CAVOK 27/19 Q1018
18:27 Land
18:27 Wind:001@002 Knots
18:27 Heading: 189
18:27 Flight Duration: 01:07
18:27 Landing Weight: 42200 Lbs
18:27 POS N39 51 43 E004 13 07
18:30 Parking brakes on
18:30 Block to Block Duration: 01:18
18:30 Final Fuel: 7059 Lbls
18:30 Spent Fuel: 2030 Lbls
18:30 Flight
Length: 249 NM
18:30 TOD Land Length: 105 NM

Exportar CSV

Powered by Drupal - Modified by Danger4k